sensor_id;sensor_type;location;lat;lon;timestamp;P1;durP1;ratioP1;P2;durP2;ratioP2
11681;SDS011;5897;42.640;23.310;2023-02-11T00:01:34;12.90;;;8.83;;
11681;SDS011;5897;42.640;23.310;2023-02-11T00:04:03;14.17;;;8.50;;
11681;SDS011;5897;42.640;23.310;2023-02-11T00:06:31;13.70;;;8.97;;
11681;SDS011;5897;42.640;23.310;2023-02-11T00:08:59;14.57;;;9.00;;
11681;SDS011;5897;42.640;23.310;2023-02-11T00:11:28;15.77;;;9.33;;
11681;SDS011;5897;42.640;23.310;2023-02-11T00:13:55;15.87;;;8.63;;
11681;SDS011;5897;42.640;23.310;2023-02-11T00:16:23;14.10;;;9.47;;
11681;SDS011;5897;42.640;23.310;2023-02-11T00:18:50;16.10;;;9.53;;
11681;SDS011;5897;42.640;23.310;2023-02-11T00:21:18;13.00;;;8.80;;
11681;SDS011;5897;42.640;23.310;2023-02-11T00:23:47;12.87;;;8.70;;
11681;SDS011;5897;42.640;23.310;2023-02-11T00:26:15;13.47;;;9.33;;
11681;SDS011;5897;42.640;23.310;2023-02-11T00:28:45;15.77;;;9.80;;
11681;SDS011;5897;42.640;23.310;2023-02-11T00:31:13;13.40;;;8.60;;
11681;SDS011;5897;42.640;23.310;2023-02-11T00:33:41;14.27;;;8.90;;
11681;SDS011;5897;42.640;23.310;2023-02-11T00:36:09;13.70;;;8.57;;
11681;SDS011;5897;42.640;23.310;2023-02-11T00:38:39;13.53;;;8.50;;
11681;SDS011;5897;42.640;23.310;2023-02-11T00:41:07;14.97;;;9.33;;
11681;SDS011;5897;42.640;23.310;2023-02-11T00:43:34;14.97;;;8.47;;
11681;SDS011;5897;42.640;23.310;2023-02-11T00:46:03;14.60;;;8.57;;
11681;SDS011;5897;42.640;23.310;2023-02-11T00:48:30;10.67;;;7.40;;
11681;SDS011;5897;42.640;23.310;2023-02-11T00:50:57;14.03;;;7.93;;
11681;SDS011;5897;42.640;23.310;2023-02-11T00:53:24;12.83;;;8.70;;
11681;SDS011;5897;42.640;23.310;2023-02-11T00:55:51;15.20;;;8.53;;
11681;SDS011;5897;42.640;23.310;2023-02-11T00:58:18;13.33;;;8.07;;
11681;SDS011;5897;42.640;23.310;2023-02-11T01:00:45;12.90;;;8.07;;
11681;SDS011;5897;42.640;23.310;2023-02-11T01:03:13;15.10;;;8.60;;
11681;SDS011;5897;42.640;23.310;2023-02-11T01:05:40;15.07;;;8.57;;
11681;SDS011;5897;42.640;23.310;2023-02-11T01:08:07;13.07;;;7.87;;
11681;SDS011;5897;42.640;23.310;2023-02-11T01:10:34;13.10;;;8.90;;
11681;SDS011;5897;42.640;23.310;2023-02-11T01:13:01;13.10;;;8.03;;
11681;SDS011;5897;42.640;23.310;2023-02-11T01:15:28;14.17;;;8.23;;
11681;SDS011;5897;42.640;23.310;2023-02-11T01:17:55;12.47;;;8.80;;
11681;SDS011;5897;42.640;23.310;2023-02-11T01:20:24;13.33;;;8.37;;
11681;SDS011;5897;42.640;23.310;2023-02-11T01:22:52;12.47;;;8.70;;
11681;SDS011;5897;42.640;23.310;2023-02-11T01:25:19;14.83;;;8.97;;
11681;SDS011;5897;42.640;23.310;2023-02-11T01:27:45;14.53;;;9.17;;
11681;SDS011;5897;42.640;23.310;2023-02-11T01:30:13;14.30;;;9.67;;
11681;SDS011;5897;42.640;23.310;2023-02-11T01:32:40;13.77;;;9.10;;
11681;SDS011;5897;42.640;23.310;2023-02-11T01:35:07;15.77;;;9.77;;
11681;SDS011;5897;42.640;23.310;2023-02-11T01:37:35;15.37;;;9.53;;
11681;SDS011;5897;42.640;23.310;2023-02-11T01:40:03;13.87;;;9.20;;
11681;SDS011;5897;42.640;23.310;2023-02-11T01:42:33;15.77;;;9.03;;
11681;SDS011;5897;42.640;23.310;2023-02-11T01:45:00;15.63;;;9.60;;
11681;SDS011;5897;42.640;23.310;2023-02-11T01:47:47;13.43;;;9.43;;
11681;SDS011;5897;42.640;23.310;2023-02-11T01:50:14;13.33;;;8.40;;
11681;SDS011;5897;42.640;23.310;2023-02-11T01:52:42;15.73;;;9.00;;
11681;SDS011;5897;42.640;23.310;2023-02-11T01:55:11;13.37;;;9.23;;
11681;SDS011;5897;42.640;23.310;2023-02-11T01:57:58;13.03;;;8.63;;
11681;SDS011;5897;42.640;23.310;2023-02-11T02:00:29;12.33;;;8.43;;
11681;SDS011;5897;42.640;23.310;2023-02-11T02:03:01;14.10;;;8.30;;
11681;SDS011;5897;42.640;23.310;2023-02-11T02:05:32;14.13;;;9.10;;
11681;SDS011;5897;42.640;23.310;2023-02-11T02:08:05;13.20;;;9.07;;
11681;SDS011;5897;42.640;23.310;2023-02-11T02:10:40;13.83;;;9.23;;
11681;SDS011;5897;42.640;23.310;2023-02-11T02:13:09;17.07;;;9.77;;
11681;SDS011;5897;42.640;23.310;2023-02-11T02:15:36;13.77;;;9.60;;
11681;SDS011;5897;42.640;23.310;2023-02-11T02:21:11;12.47;;;8.73;;
11681;SDS011;5897;42.640;23.310;2023-02-11T02:24:14;12.17;;;8.43;;
11681;SDS011;5897;42.640;23.310;2023-02-11T02:27:07;13.83;;;8.63;;
11681;SDS011;5897;42.640;23.310;2023-02-11T02:29:55;15.10;;;8.97;;
11681;SDS011;5897;42.640;23.310;2023-02-11T02:32:42;16.13;;;9.00;;
11681;SDS011;5897;42.640;23.310;2023-02-11T02:35:18;13.23;;;8.33;;
11681;SDS011;5897;42.640;23.310;2023-02-11T02:37:55;14.50;;;8.57;;
11681;SDS011;5897;42.640;23.310;2023-02-11T02:40:28;12.90;;;8.37;;
11681;SDS011;5897;42.640;23.310;2023-02-11T02:42:58;11.37;;;7.30;;
11681;SDS011;5897;42.640;23.310;2023-02-11T02:45:26;13.10;;;8.40;;
11681;SDS011;5897;42.640;23.310;2023-02-11T02:47:55;11.53;;;7.80;;
11681;SDS011;5897;42.640;23.310;2023-02-11T02:50:23;12.73;;;7.70;;
11681;SDS011;5897;42.640;23.310;2023-02-11T02:52:56;14.13;;;8.00;;
11681;SDS011;5897;42.640;23.310;2023-02-11T02:55:38;11.73;;;7.50;;
11681;SDS011;5897;42.640;23.310;2023-02-11T02:58:18;13.67;;;8.13;;
11681;SDS011;5897;42.640;23.310;2023-02-11T03:01:02;13.77;;;8.10;;
11681;SDS011;5897;42.640;23.310;2023-02-11T03:03:40;13.57;;;8.37;;
11681;SDS011;5897;42.640;23.310;2023-02-11T03:06:14;14.40;;;8.97;;
11681;SDS011;5897;42.640;23.310;2023-02-11T03:08:48;14.17;;;8.80;;
11681;SDS011;5897;42.640;23.310;2023-02-11T03:11:20;17.20;;;8.87;;
11681;SDS011;5897;42.640;23.310;2023-02-11T03:13:49;14.90;;;8.70;;
11681;SDS011;5897;42.640;23.310;2023-02-11T03:16:18;11.77;;;8.03;;
11681;SDS011;5897;42.640;23.310;2023-02-11T03:18:51;13.83;;;7.90;;
11681;SDS011;5897;42.640;23.310;2023-02-11T03:21:22;15.60;;;8.60;;
11681;SDS011;5897;42.640;23.310;2023-02-11T03:23:51;13.17;;;8.23;;
11681;SDS011;5897;42.640;23.310;2023-02-11T03:26:22;18.23;;;10.90;;
11681;SDS011;5897;42.640;23.310;2023-02-11T03:28:54;14.70;;;8.50;;
11681;SDS011;5897;42.640;23.310;2023-02-11T03:31:28;15.27;;;8.97;;
11681;SDS011;5897;42.640;23.310;2023-02-11T03:34:03;13.97;;;8.90;;
11681;SDS011;5897;42.640;23.310;2023-02-11T03:36:35;11.83;;;8.23;;
11681;SDS011;5897;42.640;23.310;2023-02-11T03:39:10;12.47;;;8.00;;
11681;SDS011;5897;42.640;23.310;2023-02-11T03:41:39;17.40;;;8.20;;
11681;SDS011;5897;42.640;23.310;2023-02-11T03:44:07;13.90;;;8.20;;
11681;SDS011;5897;42.640;23.310;2023-02-11T03:46:36;13.57;;;8.30;;
11681;SDS011;5897;42.640;23.310;2023-02-11T03:49:07;15.10;;;8.53;;
11681;SDS011;5897;42.640;23.310;2023-02-11T03:51:36;16.80;;;8.63;;
11681;SDS011;5897;42.640;23.310;2023-02-11T03:54:04;12.03;;;8.43;;
11681;SDS011;5897;42.640;23.310;2023-02-11T03:56:37;11.70;;;7.83;;
11681;SDS011;5897;42.640;23.310;2023-02-11T03:59:06;14.50;;;8.80;;
11681;SDS011;5897;42.640;23.310;2023-02-11T04:01:33;12.90;;;8.83;;
11681;SDS011;5897;42.640;23.310;2023-02-11T04:04:00;13.57;;;7.67;;
11681;SDS011;5897;42.640;23.310;2023-02-11T04:06:28;12.80;;;8.77;;
11681;SDS011;5897;42.640;23.310;2023-02-11T04:08:55;13.07;;;8.13;;
11681;SDS011;5897;42.640;23.310;2023-02-11T04:11:22;14.13;;;8.70;;
11681;SDS011;5897;42.640;23.310;2023-02-11T04:13:49;14.83;;;8.80;;
11681;SDS011;5897;42.640;23.310;2023-02-11T04:16:16;15.03;;;9.33;;
11681;SDS011;5897;42.640;23.310;2023-02-11T04:18:42;15.97;;;9.47;;
11681;SDS011;5897;42.640;23.310;2023-02-11T04:21:09;14.93;;;9.27;;
11681;SDS011;5897;42.640;23.310;2023-02-11T04:23:37;17.63;;;10.17;;
11681;SDS011;5897;42.640;23.310;2023-02-11T04:26:04;14.77;;;9.20;;
11681;SDS011;5897;42.640;23.310;2023-02-11T04:28:31;15.73;;;9.43;;
11681;SDS011;5897;42.640;23.310;2023-02-11T04:30:59;16.10;;;10.23;;
11681;SDS011;5897;42.640;23.310;2023-02-11T04:33:25;14.70;;;9.33;;
11681;SDS011;5897;42.640;23.310;2023-02-11T04:35:52;13.87;;;8.50;;
11681;SDS011;5897;42.640;23.310;2023-02-11T04:38:19;14.73;;;8.57;;
11681;SDS011;5897;42.640;23.310;2023-02-11T04:40:49;13.23;;;8.57;;
11681;SDS011;5897;42.640;23.310;2023-02-11T04:43:16;17.97;;;9.43;;
11681;SDS011;5897;42.640;23.310;2023-02-11T04:45:43;14.40;;;9.17;;
11681;SDS011;5897;42.640;23.310;2023-02-11T04:48:10;16.83;;;9.83;;
11681;SDS011;5897;42.640;23.310;2023-02-11T04:50:36;14.63;;;9.37;;
11681;SDS011;5897;42.640;23.310;2023-02-11T04:53:03;14.47;;;9.43;;
11681;SDS011;5897;42.640;23.310;2023-02-11T04:55:30;14.00;;;8.97;;
11681;SDS011;5897;42.640;23.310;2023-02-11T04:57:58;17.53;;;10.80;;
11681;SDS011;5897;42.640;23.310;2023-02-11T05:00:25;16.23;;;10.47;;
11681;SDS011;5897;42.640;23.310;2023-02-11T05:02:52;16.87;;;11.03;;
11681;SDS011;5897;42.640;23.310;2023-02-11T05:05:19;13.57;;;9.20;;
11681;SDS011;5897;42.640;23.310;2023-02-11T05:07:45;15.40;;;9.50;;
11681;SDS011;5897;42.640;23.310;2023-02-11T05:10:12;14.77;;;9.70;;
11681;SDS011;5897;42.640;23.310;2023-02-11T05:12:39;17.77;;;10.40;;
11681;SDS011;5897;42.640;23.310;2023-02-11T05:15:07;15.80;;;9.37;;
11681;SDS011;5897;42.640;23.310;2023-02-11T05:17:34;16.67;;;9.17;;
11681;SDS011;5897;42.640;23.310;2023-02-11T05:20:01;15.20;;;9.67;;
11681;SDS011;5897;42.640;23.310;2023-02-11T05:22:28;15.97;;;10.50;;
11681;SDS011;5897;42.640;23.310;2023-02-11T05:24:55;16.47;;;10.70;;
11681;SDS011;5897;42.640;23.310;2023-02-11T05:27:22;18.47;;;10.97;;
11681;SDS011;5897;42.640;23.310;2023-02-11T05:29:49;20.63;;;11.70;;
11681;SDS011;5897;42.640;23.310;2023-02-11T05:32:17;24.90;;;14.63;;
11681;SDS011;5897;42.640;23.310;2023-02-11T05:34:44;23.93;;;14.13;;
11681;SDS011;5897;42.640;23.310;2023-02-11T05:37:11;21.57;;;12.47;;
11681;SDS011;5897;42.640;23.310;2023-02-11T05:39:38;19.40;;;11.67;;
11681;SDS011;5897;42.640;23.310;2023-02-11T05:42:05;65.10;;;31.03;;
11681;SDS011;5897;42.640;23.310;2023-02-11T05:44:32;43.57;;;22.97;;
11681;SDS011;5897;42.640;23.310;2023-02-11T05:46:58;31.53;;;17.90;;
11681;SDS011;5897;42.640;23.310;2023-02-11T05:49:27;30.97;;;18.93;;
11681;SDS011;5897;42.640;23.310;2023-02-11T05:51:53;24.20;;;15.67;;
11681;SDS011;5897;42.640;23.310;2023-02-11T05:54:21;22.87;;;15.67;;
11681;SDS011;5897;42.640;23.310;2023-02-11T05:56:47;25.30;;;15.27;;
11681;SDS011;5897;42.640;23.310;2023-02-11T05:59:14;20.73;;;13.97;;
11681;SDS011;5897;42.640;23.310;2023-02-11T06:01:41;23.60;;;13.07;;
11681;SDS011;5897;42.640;23.310;2023-02-11T06:04:08;19.10;;;11.93;;
11681;SDS011;5897;42.640;23.310;2023-02-11T06:06:36;24.47;;;12.73;;
11681;SDS011;5897;42.640;23.310;2023-02-11T06:09:03;21.73;;;11.83;;
11681;SDS011;5897;42.640;23.310;2023-02-11T06:11:30;18.63;;;11.80;;
11681;SDS011;5897;42.640;23.310;2023-02-11T06:13:57;22.50;;;11.93;;
11681;SDS011;5897;42.640;23.310;2023-02-11T06:16:23;18.43;;;11.70;;
11681;SDS011;5897;42.640;23.310;2023-02-11T06:18:50;21.77;;;12.20;;
11681;SDS011;5897;42.640;23.310;2023-02-11T06:21:17;19.53;;;11.90;;
11681;SDS011;5897;42.640;23.310;2023-02-11T06:23:45;20.33;;;12.27;;
11681;SDS011;5897;42.640;23.310;2023-02-11T06:26:15;20.90;;;12.83;;
11681;SDS011;5897;42.640;23.310;2023-02-11T06:28:43;21.60;;;12.63;;
11681;SDS011;5897;42.640;23.310;2023-02-11T06:31:10;22.43;;;13.27;;
11681;SDS011;5897;42.640;23.310;2023-02-11T06:33:38;23.97;;;14.27;;
11681;SDS011;5897;42.640;23.310;2023-02-11T06:36:10;25.50;;;15.00;;
11681;SDS011;5897;42.640;23.310;2023-02-11T06:38:38;24.73;;;15.27;;
11681;SDS011;5897;42.640;23.310;2023-02-11T06:41:07;26.10;;;15.87;;
11681;SDS011;5897;42.640;23.310;2023-02-11T06:43:35;29.57;;;16.53;;
11681;SDS011;5897;42.640;23.310;2023-02-11T06:46:02;27.13;;;16.00;;
11681;SDS011;5897;42.640;23.310;2023-02-11T06:48:29;27.23;;;14.73;;
11681;SDS011;5897;42.640;23.310;2023-02-11T06:50:55;27.27;;;17.53;;
11681;SDS011;5897;42.640;23.310;2023-02-11T06:53:26;24.33;;;16.00;;
11681;SDS011;5897;42.640;23.310;2023-02-11T06:55:53;27.37;;;15.17;;
11681;SDS011;5897;42.640;23.310;2023-02-11T06:58:21;25.77;;;14.93;;
11681;SDS011;5897;42.640;23.310;2023-02-11T07:00:48;29.67;;;16.33;;
11681;SDS011;5897;42.640;23.310;2023-02-11T07:03:16;27.77;;;16.97;;
11681;SDS011;5897;42.640;23.310;2023-02-11T07:05:43;25.50;;;16.00;;
11681;SDS011;5897;42.640;23.310;2023-02-11T07:08:09;21.30;;;14.37;;
11681;SDS011;5897;42.640;23.310;2023-02-11T07:10:36;26.67;;;15.07;;
11681;SDS011;5897;42.640;23.310;2023-02-11T07:13:03;27.17;;;15.87;;
11681;SDS011;5897;42.640;23.310;2023-02-11T07:15:31;24.07;;;15.67;;
11681;SDS011;5897;42.640;23.310;2023-02-11T07:17:58;26.63;;;15.00;;
11681;SDS011;5897;42.640;23.310;2023-02-11T07:20:25;20.00;;;13.07;;
11681;SDS011;5897;42.640;23.310;2023-02-11T07:22:52;21.70;;;12.63;;
11681;SDS011;5897;42.640;23.310;2023-02-11T07:25:19;21.10;;;13.30;;
11681;SDS011;5897;42.640;23.310;2023-02-11T07:27:45;18.70;;;11.83;;
11681;SDS011;5897;42.640;23.310;2023-02-11T07:30:14;19.57;;;12.03;;
11681;SDS011;5897;42.640;23.310;2023-02-11T07:32:42;19.47;;;12.27;;
11681;SDS011;5897;42.640;23.310;2023-02-11T07:35:09;21.53;;;13.27;;
11681;SDS011;5897;42.640;23.310;2023-02-11T07:37:36;18.87;;;12.37;;
11681;SDS011;5897;42.640;23.310;2023-02-11T07:40:03;18.27;;;12.47;;
11681;SDS011;5897;42.640;23.310;2023-02-11T07:42:33;21.33;;;12.60;;
11681;SDS011;5897;42.640;23.310;2023-02-11T07:45:00;20.43;;;13.27;;
11681;SDS011;5897;42.640;23.310;2023-02-11T07:47:27;22.03;;;13.00;;
11681;SDS011;5897;42.640;23.310;2023-02-11T07:49:55;19.57;;;12.67;;
11681;SDS011;5897;42.640;23.310;2023-02-11T07:52:22;18.80;;;12.30;;
11681;SDS011;5897;42.640;23.310;2023-02-11T07:54:49;19.03;;;11.93;;
11681;SDS011;5897;42.640;23.310;2023-02-11T07:57:16;17.50;;;11.50;;
11681;SDS011;5897;42.640;23.310;2023-02-11T07:59:43;18.23;;;11.83;;
11681;SDS011;5897;42.640;23.310;2023-02-11T08:02:10;17.87;;;12.43;;
11681;SDS011;5897;42.640;23.310;2023-02-11T08:04:37;18.10;;;12.30;;
11681;SDS011;5897;42.640;23.310;2023-02-11T08:07:05;17.57;;;12.27;;
11681;SDS011;5897;42.640;23.310;2023-02-11T08:09:32;19.47;;;11.87;;
11681;SDS011;5897;42.640;23.310;2023-02-11T08:11:59;20.80;;;12.40;;
11681;SDS011;5897;42.640;23.310;2023-02-11T08:14:25;19.80;;;12.57;;
11681;SDS011;5897;42.640;23.310;2023-02-11T08:16:52;18.97;;;12.43;;
11681;SDS011;5897;42.640;23.310;2023-02-11T08:19:19;19.13;;;12.43;;
11681;SDS011;5897;42.640;23.310;2023-02-11T08:21:46;17.43;;;11.57;;
11681;SDS011;5897;42.640;23.310;2023-02-11T08:24:14;18.47;;;11.13;;
11681;SDS011;5897;42.640;23.310;2023-02-11T08:26:41;18.50;;;9.90;;
11681;SDS011;5897;42.640;23.310;2023-02-11T08:29:09;16.97;;;10.43;;
11681;SDS011;5897;42.640;23.310;2023-02-11T08:31:38;24.40;;;11.90;;
11681;SDS011;5897;42.640;23.310;2023-02-11T08:34:07;17.80;;;11.47;;
11681;SDS011;5897;42.640;23.310;2023-02-11T08:36:36;16.07;;;10.13;;
11681;SDS011;5897;42.640;23.310;2023-02-11T08:39:04;17.07;;;10.33;;
11681;SDS011;5897;42.640;23.310;2023-02-11T08:41:34;15.43;;;10.73;;
11681;SDS011;5897;42.640;23.310;2023-02-11T08:44:01;19.60;;;11.30;;
11681;SDS011;5897;42.640;23.310;2023-02-11T08:46:27;15.07;;;10.60;;
11681;SDS011;5897;42.640;23.310;2023-02-11T08:48:55;16.90;;;11.60;;
11681;SDS011;5897;42.640;23.310;2023-02-11T08:51:22;19.87;;;12.57;;
11681;SDS011;5897;42.640;23.310;2023-02-11T08:53:51;21.23;;;12.30;;
11681;SDS011;5897;42.640;23.310;2023-02-11T08:56:19;19.60;;;13.63;;
11681;SDS011;5897;42.640;23.310;2023-02-11T08:58:48;22.33;;;13.07;;
11681;SDS011;5897;42.640;23.310;2023-02-11T09:01:16;18.45;;;13.65;;
11681;SDS011;5897;42.640;23.310;2023-02-11T09:03:45;19.60;;;13.32;;
11681;SDS011;5897;42.640;23.310;2023-02-11T09:06:12;23.80;;;14.20;;
11681;SDS011;5897;42.640;23.310;2023-02-11T09:08:40;18.85;;;12.60;;
11681;SDS011;5897;42.640;23.310;2023-02-11T09:11:08;19.92;;;13.18;;
11681;SDS011;5897;42.640;23.310;2023-02-11T09:13:36;21.40;;;14.57;;
11681;SDS011;5897;42.640;23.310;2023-02-11T09:16:05;18.90;;;13.07;;
11681;SDS011;5897;42.640;23.310;2023-02-11T09:18:32;20.20;;;13.18;;
11681;SDS011;5897;42.640;23.310;2023-02-11T09:21:02;19.90;;;13.48;;
11681;SDS011;5897;42.640;23.310;2023-02-11T09:23:31;18.58;;;13.07;;
11681;SDS011;5897;42.640;23.310;2023-02-11T09:25:58;20.65;;;13.23;;
11681;SDS011;5897;42.640;23.310;2023-02-11T09:28:25;19.08;;;13.32;;
11681;SDS011;5897;42.640;23.310;2023-02-11T09:30:52;18.83;;;12.98;;
11681;SDS011;5897;42.640;23.310;2023-02-11T09:33:20;18.67;;;12.32;;
11681;SDS011;5897;42.640;23.310;2023-02-11T09:35:47;17.88;;;12.40;;
11681;SDS011;5897;42.640;23.310;2023-02-11T09:38:14;20.23;;;12.75;;
11681;SDS011;5897;42.640;23.310;2023-02-11T09:40:41;17.38;;;12.68;;
11681;SDS011;5897;42.640;23.310;2023-02-11T09:43:09;18.10;;;11.70;;
11681;SDS011;5897;42.640;23.310;2023-02-11T09:45:40;22.15;;;12.73;;
11681;SDS011;5897;42.640;23.310;2023-02-11T09:48:09;16.85;;;11.13;;
11681;SDS011;5897;42.640;23.310;2023-02-11T09:50:41;17.35;;;12.30;;
11681;SDS011;5897;42.640;23.310;2023-02-11T09:53:13;18.42;;;12.15;;
11681;SDS011;5897;42.640;23.310;2023-02-11T09:55:45;17.55;;;12.45;;
11681;SDS011;5897;42.640;23.310;2023-02-11T09:58:18;17.95;;;12.02;;
11681;SDS011;5897;42.640;23.310;2023-02-11T10:00:50;17.20;;;12.25;;
11681;SDS011;5897;42.640;23.310;2023-02-11T10:06:27;17.38;;;11.95;;
11681;SDS011;5897;42.640;23.310;2023-02-11T10:09:20;16.98;;;11.02;;
11681;SDS011;5897;42.640;23.310;2023-02-11T10:11:57;16.92;;;11.90;;
11681;SDS011;5897;42.640;23.310;2023-02-11T10:14:47;20.23;;;12.55;;
11681;SDS011;5897;42.640;23.310;2023-02-11T10:17:26;16.38;;;11.02;;
11681;SDS011;5897;42.640;23.310;2023-02-11T10:20:07;14.93;;;9.77;;
11681;SDS011;5897;42.640;23.310;2023-02-11T10:22:46;14.50;;;10.95;;
11681;SDS011;5897;42.640;23.310;2023-02-11T10:25:20;16.85;;;10.60;;
11681;SDS011;5897;42.640;23.310;2023-02-11T10:27:49;16.80;;;11.23;;
11681;SDS011;5897;42.640;23.310;2023-02-11T10:30:20;19.27;;;11.80;;
11681;SDS011;5897;42.640;23.310;2023-02-11T10:32:53;17.17;;;10.18;;
11681;SDS011;5897;42.640;23.310;2023-02-11T10:35:26;15.32;;;10.30;;
11681;SDS011;5897;42.640;23.310;2023-02-11T10:37:54;14.48;;;9.02;;
11681;SDS011;5897;42.640;23.310;2023-02-11T10:40:21;15.18;;;10.18;;
11681;SDS011;5897;42.640;23.310;2023-02-11T10:42:51;14.55;;;9.80;;
11681;SDS011;5897;42.640;23.310;2023-02-11T10:45:21;14.27;;;9.75;;
11681;SDS011;5897;42.640;23.310;2023-02-11T10:47:52;14.00;;;9.73;;
11681;SDS011;5897;42.640;23.310;2023-02-11T10:50:24;15.02;;;9.88;;
11681;SDS011;5897;42.640;23.310;2023-02-11T10:52:53;14.93;;;9.48;;
11681;SDS011;5897;42.640;23.310;2023-02-11T10:55:50;13.23;;;9.13;;
11681;SDS011;5897;42.640;23.310;2023-02-11T10:58:23;12.98;;;9.18;;
11681;SDS011;5897;42.640;23.310;2023-02-11T11:00:52;12.27;;;8.50;;
11681;SDS011;5897;42.640;23.310;2023-02-11T11:03:21;12.13;;;8.80;;
11681;SDS011;5897;42.640;23.310;2023-02-11T11:05:50;12.63;;;8.73;;
11681;SDS011;5897;42.640;23.310;2023-02-11T11:08:19;12.55;;;9.30;;
11681;SDS011;5897;42.640;23.310;2023-02-11T11:10:47;12.60;;;8.65;;
11681;SDS011;5897;42.640;23.310;2023-02-11T11:13:28;12.77;;;8.80;;
11681;SDS011;5897;42.640;23.310;2023-02-11T11:16:17;12.57;;;9.50;;
11681;SDS011;5897;42.640;23.310;2023-02-11T11:18:49;13.88;;;9.32;;
11681;SDS011;5897;42.640;23.310;2023-02-11T11:21:19;15.95;;;9.95;;
11681;SDS011;5897;42.640;23.310;2023-02-11T11:23:50;13.60;;;8.98;;
11681;SDS011;5897;42.640;23.310;2023-02-11T11:26:21;12.38;;;9.55;;
11681;SDS011;5897;42.640;23.310;2023-02-11T11:28:51;12.02;;;9.32;;
11681;SDS011;5897;42.640;23.310;2023-02-11T11:31:22;15.05;;;9.75;;
11681;SDS011;5897;42.640;23.310;2023-02-11T11:33:52;15.80;;;10.00;;
11681;SDS011;5897;42.640;23.310;2023-02-11T11:36:22;13.60;;;9.45;;
11681;SDS011;5897;42.640;23.310;2023-02-11T11:38:59;12.45;;;9.27;;
11681;SDS011;5897;42.640;23.310;2023-02-11T11:41:30;12.93;;;9.38;;
11681;SDS011;5897;42.640;23.310;2023-02-11T11:44:00;11.88;;;8.70;;
11681;SDS011;5897;42.640;23.310;2023-02-11T11:46:30;13.40;;;8.15;;
11681;SDS011;5897;42.640;23.310;2023-02-11T11:51:52;11.43;;;8.00;;
11681;SDS011;5897;42.640;23.310;2023-02-11T11:54:29;11.65;;;8.50;;
11681;SDS011;5897;42.640;23.310;2023-02-11T11:56:58;11.00;;;8.55;;
11681;SDS011;5897;42.640;23.310;2023-02-11T11:59:27;11.55;;;8.70;;
11681;SDS011;5897;42.640;23.310;2023-02-11T12:02:10;11.43;;;7.78;;
11681;SDS011;5897;42.640;23.310;2023-02-11T12:04:58;11.35;;;8.60;;
11681;SDS011;5897;42.640;23.310;2023-02-11T12:07:32;12.75;;;8.15;;
11681;SDS011;5897;42.640;23.310;2023-02-11T12:13:12;10.75;;;8.10;;
11681;SDS011;5897;42.640;23.310;2023-02-11T12:15:48;11.10;;;7.63;;
11681;SDS011;5897;42.640;23.310;2023-02-11T12:18:27;9.25;;;7.55;;
11681;SDS011;5897;42.640;23.310;2023-02-11T12:21:14;11.80;;;7.57;;
11681;SDS011;5897;42.640;23.310;2023-02-11T12:23:58;9.85;;;7.80;;
11681;SDS011;5897;42.640;23.310;2023-02-11T12:26:35;10.13;;;8.25;;
11681;SDS011;5897;42.640;23.310;2023-02-11T12:29:11;9.90;;;7.80;;
11681;SDS011;5897;42.640;23.310;2023-02-11T12:31:55;11.23;;;7.70;;
11681;SDS011;5897;42.640;23.310;2023-02-11T12:34:38;11.50;;;7.40;;
11681;SDS011;5897;42.640;23.310;2023-02-11T12:37:19;10.05;;;7.95;;
11681;SDS011;5897;42.640;23.310;2023-02-11T12:39:59;8.20;;;6.95;;
11681;SDS011;5897;42.640;23.310;2023-02-11T12:42:43;10.00;;;6.90;;
11681;SDS011;5897;42.640;23.310;2023-02-11T12:45:46;9.82;;;6.90;;
11681;SDS011;5897;42.640;23.310;2023-02-11T12:48:26;11.02;;;6.47;;
11681;SDS011;5897;42.640;23.310;2023-02-11T12:51:05;12.27;;;7.32;;
11681;SDS011;5897;42.640;23.310;2023-02-11T12:53:51;10.07;;;7.68;;
11681;SDS011;5897;42.640;23.310;2023-02-11T12:56:31;10.80;;;8.05;;
11681;SDS011;5897;42.640;23.310;2023-02-11T12:59:05;10.38;;;8.73;;
11681;SDS011;5897;42.640;23.310;2023-02-11T13:01:40;11.35;;;8.35;;
11681;SDS011;5897;42.640;23.310;2023-02-11T13:04:10;11.50;;;7.93;;
11681;SDS011;5897;42.640;23.310;2023-02-11T13:06:44;9.77;;;8.02;;
11681;SDS011;5897;42.640;23.310;2023-02-11T13:09:15;10.98;;;8.23;;
11681;SDS011;5897;42.640;23.310;2023-02-11T13:11:48;10.43;;;8.07;;
11681;SDS011;5897;42.640;23.310;2023-02-11T13:14:21;10.27;;;8.18;;
11681;SDS011;5897;42.640;23.310;2023-02-11T13:16:52;10.18;;;8.10;;
11681;SDS011;5897;42.640;23.310;2023-02-11T13:19:22;11.77;;;8.25;;
11681;SDS011;5897;42.640;23.310;2023-02-11T13:21:59;10.48;;;8.23;;
11681;SDS011;5897;42.640;23.310;2023-02-11T13:24:33;10.25;;;8.20;;
11681;SDS011;5897;42.640;23.310;2023-02-11T13:27:08;11.75;;;8.25;;
11681;SDS011;5897;42.640;23.310;2023-02-11T13:30:07;10.07;;;8.40;;
11681;SDS011;5897;42.640;23.310;2023-02-11T13:33:03;10.52;;;8.18;;
11681;SDS011;5897;42.640;23.310;2023-02-11T13:35:32;11.57;;;8.57;;
11681;SDS011;5897;42.640;23.310;2023-02-11T13:38:00;11.45;;;8.23;;
11681;SDS011;5897;42.640;23.310;2023-02-11T13:40:29;11.95;;;8.60;;
11681;SDS011;5897;42.640;23.310;2023-02-11T13:43:00;10.85;;;8.55;;
11681;SDS011;5897;42.640;23.310;2023-02-11T13:45:30;10.73;;;7.35;;
11681;SDS011;5897;42.640;23.310;2023-02-11T13:48:03;11.85;;;8.10;;
11681;SDS011;5897;42.640;23.310;2023-02-11T13:50:35;10.35;;;7.97;;
11681;SDS011;5897;42.640;23.310;2023-02-11T13:53:04;10.02;;;7.95;;
11681;SDS011;5897;42.640;23.310;2023-02-11T13:55:32;11.77;;;8.38;;
11681;SDS011;5897;42.640;23.310;2023-02-11T13:58:17;9.38;;;7.65;;
11681;SDS011;5897;42.640;23.310;2023-02-11T14:01:01;11.85;;;8.20;;
11681;SDS011;5897;42.640;23.310;2023-02-11T14:03:30;11.98;;;8.00;;
11681;SDS011;5897;42.640;23.310;2023-02-11T14:06:21;11.35;;;7.85;;
11681;SDS011;5897;42.640;23.310;2023-02-11T14:12:20;11.65;;;8.20;;
11681;SDS011;5897;42.640;23.310;2023-02-11T14:15:18;10.45;;;7.93;;
11681;SDS011;5897;42.640;23.310;2023-02-11T14:17:49;13.38;;;8.32;;
11681;SDS011;5897;42.640;23.310;2023-02-11T14:20:35;10.10;;;7.57;;
11681;SDS011;5897;42.640;23.310;2023-02-11T14:23:16;9.70;;;8.13;;
11681;SDS011;5897;42.640;23.310;2023-02-11T14:25:51;13.68;;;10.48;;
11681;SDS011;5897;42.640;23.310;2023-02-11T14:28:27;12.82;;;10.52;;
11681;SDS011;5897;42.640;23.310;2023-02-11T14:31:01;11.35;;;8.75;;
11681;SDS011;5897;42.640;23.310;2023-02-11T14:39:40;19.00;;;12.90;;
11681;SDS011;5897;42.640;23.310;2023-02-11T14:42:19;17.13;;;12.45;;
11681;SDS011;5897;42.640;23.310;2023-02-11T14:44:50;13.50;;;10.13;;
11681;SDS011;5897;42.640;23.310;2023-02-11T14:47:22;14.77;;;10.40;;
11681;SDS011;5897;42.640;23.310;2023-02-11T14:49:54;14.55;;;10.10;;
11681;SDS011;5897;42.640;23.310;2023-02-11T14:52:25;18.77;;;12.57;;
11681;SDS011;5897;42.640;23.310;2023-02-11T14:54:57;19.92;;;12.93;;
11681;SDS011;5897;42.640;23.310;2023-02-11T14:57:32;21.88;;;13.95;;
11681;SDS011;5897;42.640;23.310;2023-02-11T15:00:00;16.63;;;11.70;;
11681;SDS011;5897;42.640;23.310;2023-02-11T15:02:31;15.27;;;10.70;;
11681;SDS011;5897;42.640;23.310;2023-02-11T15:05:15;16.35;;;12.07;;
11681;SDS011;5897;42.640;23.310;2023-02-11T15:07:45;15.85;;;11.18;;
11681;SDS011;5897;42.640;23.310;2023-02-11T15:10:21;17.63;;;10.55;;
11681;SDS011;5897;42.640;23.310;2023-02-11T15:12:53;17.50;;;11.70;;